Terminal Aerodrome Forecast
Issued by NWS Twin Cities, MN

Home | Current Version | Previous Version | Text Only | Print | Product List | Glossary On
Versions: 1 2 3 4 5 6 7 8 9 10 11 12 13 14 15 16 17
000
FTUS43 KMPX 150928 AAA
TAFEAU
TAF AMD
KEAU 150928Z 1509/1606 29007KT P6SM SCT020 OVC040
     FM151200 28005KT P6SM OVC025
     FM152100 24004KT P6SM BKN025 OVC040
     FM160300 10003KT 2SM -SN OVC025=

USA.gov is the U.S. government's official web portal to all federal, state and local government web resources and services.